createdAt,value
2022-09-15T00:01:20.735Z,79.20
2022-09-15T00:03:49.287Z,79.03
2022-09-15T00:06:17.409Z,78.81
2022-09-15T00:08:45.158Z,78.74
2022-09-15T00:11:20.362Z,78.80
2022-09-15T00:13:48.308Z,78.74
2022-09-15T00:16:18.333Z,79.01
2022-09-15T00:18:46.299Z,78.76
2022-09-15T00:21:15.461Z,79.03
2022-09-15T00:23:43.401Z,79.11
2022-09-15T00:26:12.610Z,79.09
2022-09-15T00:28:40.409Z,78.80
2022-09-15T00:31:09.782Z,78.99
2022-09-15T00:33:37.841Z,79.04
2022-09-15T00:36:10.892Z,79.20
2022-09-15T00:38:39.318Z,78.83
2022-09-15T00:41:08.478Z,78.65
2022-09-15T00:43:49.115Z,78.43
2022-09-15T00:46:20.830Z,78.68
2022-09-15T00:48:51.939Z,78.60
2022-09-15T00:51:20.898Z,78.64
2022-09-15T00:53:48.868Z,78.53
2022-09-15T00:56:19.860Z,78.61
2022-09-15T00:58:55.612Z,78.38
2022-09-15T01:01:23.996Z,78.11
2022-09-15T01:03:55.865Z,77.88
2022-09-15T01:06:32.218Z,78.10
2022-09-15T01:09:12.062Z,77.92
2022-09-15T01:11:39.829Z,78.13
2022-09-15T01:14:08.060Z,78.10
2022-09-15T01:16:52.258Z,78.41
2022-09-15T01:19:32.362Z,78.66
2022-09-15T01:22:18.806Z,78.74
2022-09-15T01:25:02.028Z,78.67
2022-09-15T01:27:48.457Z,78.26
2022-09-15T01:30:19.243Z,78.34
2022-09-15T01:33:07.222Z,78.08
2022-09-15T01:35:38.017Z,77.87
2022-09-15T01:38:14.776Z,77.66
2022-09-15T01:40:51.002Z,77.36
2022-09-15T01:43:20.279Z,77.27
2022-09-15T01:45:48.315Z,77.19
2022-09-15T01:48:18.696Z,76.98
2022-09-15T01:50:47.380Z,76.89
2022-09-15T01:53:16.242Z,76.50
2022-09-15T01:56:07.420Z,76.40
2022-09-15T01:58:35.529Z,76.55
2022-09-15T02:01:07.809Z,77.01
2022-09-15T02:03:39.778Z,77.40
2022-09-15T02:06:09.206Z,76.79
2022-09-15T02:08:38.569Z,76.57
2022-09-15T02:11:18.306Z,76.33
2022-09-15T02:13:52.224Z,76.52
2022-09-15T02:16:21.314Z,76.79
2022-09-15T02:18:56.778Z,77.04
2022-09-15T02:21:30.052Z,77.28
2022-09-15T02:24:01.372Z,77.70
2022-09-15T02:26:29.470Z,77.76
2022-09-15T02:28:57.226Z,77.82
2022-09-15T02:31:25.177Z,77.60
2022-09-15T02:33:58.095Z,77.55
2022-09-15T02:36:26.025Z,77.64
2022-09-15T02:38:58.270Z,77.07
2022-09-15T02:41:29.125Z,76.58
2022-09-15T02:43:58.155Z,76.40
2022-09-15T02:46:25.884Z,76.38
2022-09-15T02:48:57.190Z,76.22
2022-09-15T02:51:25.618Z,76.31
2022-09-15T02:53:55.297Z,76.51
2022-09-15T02:56:23.849Z,76.76
2022-09-15T02:58:51.592Z,77.00
2022-09-15T03:01:19.409Z,77.24
2022-09-15T03:03:47.266Z,77.47
2022-09-15T03:06:17.746Z,77.59
2022-09-15T03:08:51.097Z,77.35
2022-09-15T03:11:20.422Z,77.39
2022-09-15T03:13:48.560Z,77.43
2022-09-15T03:16:16.480Z,77.14
2022-09-15T03:18:44.316Z,76.84
2022-09-15T03:21:13.510Z,76.66
2022-09-15T03:23:43.723Z,76.81
2022-09-15T03:26:11.702Z,76.80
2022-09-15T03:28:42.509Z,76.76
2022-09-15T03:31:10.265Z,76.37
2022-09-15T03:33:39.301Z,76.15
2022-09-15T03:36:07.391Z,75.94
2022-09-15T03:38:35.138Z,75.79
2022-09-15T03:41:07.589Z,75.52
2022-09-15T03:43:38.781Z,75.96
2022-09-15T03:46:07.034Z,76.26
2022-09-15T03:48:37.574Z,76.03
2022-09-15T03:51:06.805Z,76.44
2022-09-15T03:53:36.227Z,76.50
2022-09-15T03:56:08.516Z,76.66
2022-09-15T03:58:38.677Z,76.89
2022-09-15T04:01:06.656Z,77.03
2022-09-15T04:03:40.250Z,77.22
2022-09-15T04:06:11.547Z,77.14
2022-09-15T04:08:39.449Z,76.63
2022-09-15T04:11:09.467Z,76.38
2022-09-15T04:13:38.228Z,76.61
2022-09-15T04:16:08.187Z,76.68
2022-09-15T04:18:36.151Z,76.71
2022-09-15T04:21:05.951Z,76.89
2022-09-15T04:23:34.057Z,76.88
2022-09-15T04:26:06.901Z,76.97
2022-09-15T04:28:35.550Z,77.19
2022-09-15T04:31:13.682Z,77.25
2022-09-15T04:33:42.326Z,77.06
2022-09-15T04:36:11.266Z,77.07
2022-09-15T04:38:39.830Z,76.91
2022-09-15T04:41:08.891Z,77.24
2022-09-15T04:43:39.213Z,76.95
2022-09-15T04:46:07.796Z,77.02
2022-09-15T04:48:35.657Z,77.01
2022-09-15T04:51:04.283Z,77.29
2022-09-15T04:53:32.329Z,77.40
2022-09-15T04:56:08.901Z,77.28
2022-09-15T04:58:51.331Z,77.18
2022-09-15T05:01:20.585Z,77.24
2022-09-15T05:03:50.150Z,77.58
2022-09-15T05:06:19.401Z,77.75
2022-09-15T05:08:49.820Z,77.83
2022-09-15T05:11:18.357Z,77.73
2022-09-15T05:13:46.598Z,77.67
2022-09-15T05:16:18.588Z,77.42
2022-09-15T05:18:46.984Z,77.52
2022-09-15T05:21:16.260Z,77.74
2022-09-15T05:23:44.230Z,77.89
2022-09-15T05:26:14.480Z,78.03
2022-09-15T05:28:43.060Z,78.03
2022-09-15T05:31:11.871Z,78.12
2022-09-15T05:33:40.886Z,78.30
2022-09-15T05:36:09.011Z,78.34
2022-09-15T05:38:40.943Z,78.44
2022-09-15T05:41:10.540Z,78.37
2022-09-15T05:43:39.666Z,78.22
2022-09-15T05:46:07.836Z,78.25
2022-09-15T05:48:35.989Z,78.32
2022-09-15T05:51:04.443Z,78.27
2022-09-15T05:53:34.150Z,77.92
2022-09-15T05:56:03.398Z,78.03
2022-09-15T05:58:31.919Z,77.97
2022-09-15T06:01:08.816Z,78.19
2022-09-15T06:03:36.931Z,77.85
2022-09-15T06:06:05.446Z,77.52
2022-09-15T06:08:33.888Z,77.60
2022-09-15T06:11:02.943Z,77.53
2022-09-15T06:13:30.824Z,77.53
2022-09-15T06:16:02.887Z,77.55
2022-09-15T06:18:30.883Z,77.67
2022-09-15T06:21:04.940Z,77.55
2022-09-15T06:23:32.975Z,77.37
2022-09-15T06:26:04.826Z,77.15
2022-09-15T06:28:35.536Z,77.05
2022-09-15T06:31:04.375Z,77.13
2022-09-15T06:33:32.970Z,77.09
2022-09-15T06:36:02.168Z,76.88
2022-09-15T06:38:32.690Z,76.04
2022-09-15T06:41:00.623Z,75.84
2022-09-15T06:43:31.741Z,75.71
2022-09-15T06:46:16.767Z,75.92
2022-09-15T06:48:48.160Z,75.61
2022-09-15T06:51:17.436Z,75.02
2022-09-15T06:53:47.247Z,74.78
2022-09-15T06:56:19.310Z,75.09
2022-09-15T06:58:49.496Z,74.63
2022-09-15T07:01:33.880Z,74.61
2022-09-15T07:04:02.882Z,74.17
2022-09-15T07:06:31.480Z,73.93
2022-09-15T07:08:59.533Z,73.82
2022-09-15T07:11:29.115Z,73.71
2022-09-15T07:13:57.110Z,73.70
2022-09-15T07:16:31.041Z,73.04
2022-09-15T07:19:01.335Z,72.91
2022-09-15T07:21:31.868Z,73.21
2022-09-15T07:24:08.838Z,73.08
2022-09-15T07:26:36.728Z,71.50
2022-09-15T07:29:07.447Z,71.26
2022-09-15T07:31:36.916Z,71.13
2022-09-15T07:34:07.091Z,70.86
2022-09-15T07:36:35.294Z,69.91
2022-09-15T07:39:04.454Z,70.64
2022-09-15T07:41:32.486Z,70.51
2022-09-15T07:44:03.546Z,68.98
2022-09-15T07:46:32.202Z,69.42
2022-09-15T07:49:03.396Z,69.58
2022-09-15T07:51:31.615Z,68.65
2022-09-15T07:53:59.431Z,68.42
2022-09-15T07:56:29.891Z,68.68
2022-09-15T07:58:58.420Z,67.53
2022-09-15T08:01:26.458Z,67.23
2022-09-15T08:03:56.123Z,67.85
2022-09-15T08:06:29.382Z,67.46
2022-09-15T08:09:00.796Z,66.86
2022-09-15T08:11:31.779Z,66.23
2022-09-15T08:14:01.403Z,66.80
2022-09-15T08:16:29.298Z,66.70
2022-09-15T08:18:57.282Z,65.20
2022-09-15T08:21:25.885Z,64.90
2022-09-15T08:23:56.171Z,65.16
2022-09-15T08:26:25.078Z,64.85
2022-09-15T08:28:54.350Z,64.14
2022-09-15T08:31:24.104Z,63.18
2022-09-15T08:33:53.720Z,63.07
2022-09-15T08:36:24.593Z,62.37
2022-09-15T08:38:52.705Z,61.17
2022-09-15T08:41:23.023Z,61.44
2022-09-15T08:43:56.989Z,61.66
2022-09-15T08:46:29.795Z,60.63
2022-09-15T08:49:30.621Z,60.37
2022-09-15T08:52:05.437Z,60.02
2022-09-15T08:54:35.378Z,59.77
2022-09-15T08:57:03.399Z,59.83
2022-09-15T08:59:35.394Z,59.74
2022-09-15T09:02:13.250Z,60.27
2022-09-15T09:05:28.047Z,60.71
2022-09-15T09:07:57.847Z,60.53
2022-09-15T09:10:36.546Z,60.66
2022-09-15T09:13:09.015Z,60.97
2022-09-15T09:15:43.945Z,61.51
2022-09-15T09:18:12.003Z,61.44
2022-09-15T09:20:55.671Z,60.72
2022-09-15T09:23:25.169Z,60.25
2022-09-15T09:25:53.317Z,59.65
2022-09-15T09:28:28.022Z,59.57
2022-09-15T09:30:57.912Z,59.92
2022-09-15T09:33:28.602Z,60.64
2022-09-15T09:35:58.620Z,61.36
2022-09-15T09:38:31.353Z,61.19
2022-09-15T09:41:02.856Z,61.41
2022-09-15T09:43:32.359Z,61.52
2022-09-15T09:46:02.070Z,62.05
2022-09-15T09:48:30.269Z,61.99
2022-09-15T09:51:01.408Z,61.94
2022-09-15T09:53:31.298Z,61.75
2022-09-15T09:56:13.035Z,61.41
2022-09-15T09:58:44.009Z,60.19
2022-09-15T10:01:13.660Z,59.49
2022-09-15T10:03:43.371Z,60.42
2022-09-15T10:06:14.295Z,60.38
2022-09-15T10:09:00.689Z,60.55
2022-09-15T10:11:41.158Z,61.07
2022-09-15T10:14:16.871Z,60.96
2022-09-15T10:16:44.806Z,61.34
2022-09-15T10:19:13.583Z,61.58
2022-09-15T10:21:41.654Z,61.52
2022-09-15T10:24:29.767Z,61.50
2022-09-15T10:27:16.750Z,61.03
2022-09-15T10:29:44.963Z,60.67
2022-09-15T10:32:18.327Z,61.11
2022-09-15T10:34:49.313Z,60.92
2022-09-15T10:37:23.562Z,59.66
2022-09-15T10:39:55.364Z,58.95
2022-09-15T10:42:31.026Z,58.30
2022-09-15T10:45:03.980Z,57.98
2022-09-15T10:47:51.769Z,56.79
2022-09-15T10:50:42.911Z,54.78
2022-09-15T10:53:10.933Z,54.66
2022-09-15T10:55:59.043Z,53.85
2022-09-15T10:58:29.891Z,52.66
2022-09-15T11:01:01.887Z,51.94
2022-09-15T11:03:43.705Z,52.03
2022-09-15T11:06:31.999Z,53.11
2022-09-15T11:09:06.022Z,53.07
2022-09-15T11:12:13.594Z,52.02
2022-09-15T11:14:48.907Z,52.59
2022-09-15T11:17:22.893Z,52.35
2022-09-15T11:19:53.658Z,52.08
2022-09-15T11:22:25.298Z,51.66
2022-09-15T11:24:58.828Z,51.28
2022-09-15T11:27:36.717Z,50.91
2022-09-15T11:30:23.533Z,50.51
2022-09-15T11:33:04.646Z,50.60
2022-09-15T11:35:49.163Z,50.57
2022-09-15T11:38:24.189Z,50.01
2022-09-15T11:40:57.470Z,49.05
2022-09-15T11:43:31.261Z,49.75
2022-09-15T11:45:59.086Z,50.84
2022-09-15T11:48:39.816Z,51.02
2022-09-15T11:51:07.489Z,49.69
2022-09-15T11:53:43.047Z,49.05
2022-09-15T11:56:14.454Z,49.02
2022-09-15T11:58:55.022Z,48.80
2022-09-15T12:01:29.173Z,47.54
2022-09-15T12:03:59.487Z,46.48
2022-09-15T12:06:46.395Z,47.12
2022-09-15T12:09:16.071Z,47.64
2022-09-15T12:11:47.134Z,47.43
2022-09-15T12:14:35.575Z,47.62
2022-09-15T12:17:06.550Z,47.23
2022-09-15T12:19:46.101Z,47.66
2022-09-15T12:22:16.802Z,48.12
2022-09-15T12:24:50.934Z,49.06
2022-09-15T12:27:20.193Z,49.58
2022-09-15T12:29:51.506Z,49.92
2022-09-15T12:32:26.909Z,49.77
2022-09-15T12:35:07.952Z,50.55
2022-09-15T12:37:46.871Z,50.49
2022-09-15T12:40:33.721Z,50.83
2022-09-15T12:43:16.447Z,49.73
2022-09-15T12:45:52.770Z,48.69
2022-09-15T12:48:20.923Z,48.37
2022-09-15T12:50:55.425Z,49.53
2022-09-15T12:53:24.706Z,50.09
2022-09-15T12:55:56.976Z,47.91
2022-09-15T12:58:24.702Z,47.53
2022-09-15T13:01:17.032Z,45.20
2022-09-15T13:06:26.133Z,45.43
2022-09-15T13:09:06.650Z,46.41
2022-09-15T13:11:37.413Z,48.01
2022-09-15T13:14:12.079Z,48.80
2022-09-15T13:16:40.171Z,49.45
2022-09-15T13:19:17.164Z,50.13
2022-09-15T13:21:52.180Z,50.64
2022-09-15T13:24:38.841Z,51.76
2022-09-15T13:27:06.745Z,52.74
2022-09-15T13:29:41.274Z,53.65
2022-09-15T13:32:29.245Z,54.16
2022-09-15T13:35:19.564Z,53.88
2022-09-15T13:38:12.561Z,54.89
2022-09-15T13:41:05.428Z,55.45
2022-09-15T13:43:36.279Z,55.58
2022-09-15T13:46:12.057Z,55.86
2022-09-15T13:48:47.165Z,56.17
2022-09-15T13:51:25.743Z,56.82
2022-09-15T13:53:59.711Z,56.87
2022-09-15T13:56:35.611Z,56.75
2022-09-15T13:59:14.091Z,56.62
2022-09-15T14:01:43.340Z,56.52
2022-09-15T14:04:21.680Z,56.61
2022-09-15T14:06:50.279Z,56.61
2022-09-15T14:09:21.211Z,56.23
2022-09-15T14:11:49.696Z,55.94
2022-09-15T14:14:37.249Z,55.33
2022-09-15T14:17:05.572Z,55.19
2022-09-15T14:19:34.851Z,54.47
2022-09-15T14:22:24.833Z,53.48
2022-09-15T14:24:53.184Z,52.40
2022-09-15T14:27:22.262Z,50.76
2022-09-15T14:29:54.531Z,49.94
2022-09-15T14:32:23.439Z,48.91
2022-09-15T14:34:51.179Z,49.31
2022-09-15T14:37:28.605Z,48.70
2022-09-15T14:39:57.537Z,49.16
2022-09-15T14:42:41.644Z,49.10
2022-09-15T14:48:07.944Z,48.58
2022-09-15T14:50:35.895Z,49.38
2022-09-15T14:53:04.043Z,50.35
2022-09-15T14:55:33.940Z,50.85
2022-09-15T14:58:04.953Z,49.89
2022-09-15T15:00:34.729Z,48.89
2022-09-15T15:03:03.371Z,49.50
2022-09-15T15:05:35.856Z,49.95
2022-09-15T15:08:04.702Z,49.82
2022-09-15T15:10:35.887Z,49.07
2022-09-15T15:13:07.900Z,50.20
2022-09-15T15:15:37.174Z,51.08
2022-09-15T15:18:05.722Z,51.79
2022-09-15T15:20:33.711Z,52.37
2022-09-15T15:23:11.247Z,52.73
2022-09-15T15:25:39.132Z,53.13
2022-09-15T15:28:06.829Z,54.11
2022-09-15T15:30:36.382Z,55.23
2022-09-15T15:33:06.930Z,55.88
2022-09-15T15:35:35.867Z,56.16
2022-09-15T15:38:05.756Z,56.76
2022-09-15T15:40:35.486Z,57.44
2022-09-15T15:43:06.153Z,57.50
2022-09-15T15:45:35.660Z,58.02
2022-09-15T15:48:04.486Z,58.33
2022-09-15T15:50:32.743Z,58.61
2022-09-15T15:53:02.752Z,58.32
2022-09-15T15:55:40.237Z,56.72
2022-09-15T15:58:09.108Z,55.64
2022-09-15T16:00:40.024Z,54.38
2022-09-15T16:03:11.261Z,54.08
2022-09-15T16:05:39.406Z,53.90
2022-09-15T16:08:10.360Z,54.03
2022-09-15T16:10:39.389Z,53.98
2022-09-15T16:13:07.430Z,54.45
2022-09-15T16:15:35.344Z,54.27
2022-09-15T16:18:04.277Z,53.93
2022-09-15T16:20:32.024Z,54.12
2022-09-15T16:22:59.739Z,54.25
2022-09-15T16:25:39.020Z,54.55
2022-09-15T16:28:07.037Z,54.92
2022-09-15T16:30:35.232Z,55.22
2022-09-15T16:33:03.083Z,55.50
2022-09-15T16:35:33.492Z,55.87
2022-09-15T16:38:04.738Z,55.95
2022-09-15T16:40:32.725Z,56.23
2022-09-15T16:43:00.667Z,56.35
2022-09-15T16:45:38.245Z,56.90
2022-09-15T16:48:11.643Z,57.23
2022-09-15T16:50:45.836Z,57.71
2022-09-15T16:53:18.478Z,57.74
2022-09-15T16:55:46.494Z,58.26
2022-09-15T16:58:15.396Z,58.37
2022-09-15T17:00:43.677Z,58.78
2022-09-15T17:03:15.160Z,59.24
2022-09-15T17:05:48.510Z,59.61
2022-09-15T17:08:20.391Z,60.08
2022-09-15T17:10:48.669Z,60.58
2022-09-15T17:13:17.684Z,61.38
2022-09-15T17:15:45.994Z,61.29
2022-09-15T17:18:15.603Z,61.35
2022-09-15T17:20:44.231Z,61.62
2022-09-15T17:23:25.430Z,61.86
2022-09-15T17:25:57.693Z,61.78
2022-09-15T17:28:28.114Z,61.89
2022-09-15T17:30:57.531Z,61.93
2022-09-15T17:33:25.931Z,62.02
2022-09-15T17:35:54.664Z,62.18
2022-09-15T17:38:23.196Z,62.48
2022-09-15T17:40:54.652Z,62.78
2022-09-15T17:43:24.487Z,62.83
2022-09-15T17:45:54.336Z,62.90
2022-09-15T17:48:25.751Z,63.16
2022-09-15T17:50:57.906Z,63.14
2022-09-15T17:53:31.116Z,63.36
2022-09-15T17:55:59.253Z,63.24
2022-09-15T17:58:31.551Z,63.47
2022-09-15T18:01:01.860Z,63.64
2022-09-15T18:03:31.239Z,63.57
2022-09-15T18:06:06.868Z,63.73
2022-09-15T18:08:38.346Z,63.71
2022-09-15T18:11:15.569Z,63.86
2022-09-15T18:13:45.711Z,64.05
2022-09-15T18:16:15.012Z,64.16
2022-09-15T18:18:44.607Z,64.26
2022-09-15T18:21:24.887Z,64.64
2022-09-15T18:23:53.565Z,64.69
2022-09-15T18:26:26.493Z,64.95
2022-09-15T18:28:55.975Z,65.05
2022-09-15T18:31:24.693Z,65.31
2022-09-15T18:33:52.901Z,65.63
2022-09-15T18:36:20.868Z,65.40
2022-09-15T18:38:50.105Z,65.38
2022-09-15T18:41:18.777Z,65.51
2022-09-15T18:43:49.314Z,65.45
2022-09-15T18:46:18.659Z,65.46
2022-09-15T18:48:48.111Z,65.54
2022-09-15T18:51:23.837Z,65.77
2022-09-15T18:53:57.564Z,65.79
2022-09-15T18:56:25.668Z,65.94
2022-09-15T18:58:57.401Z,66.23
2022-09-15T19:01:28.731Z,66.27
2022-09-15T19:03:58.129Z,66.28
2022-09-15T19:06:29.310Z,66.68
2022-09-15T19:08:57.365Z,66.68
2022-09-15T19:11:27.371Z,66.83
2022-09-15T19:13:58.364Z,66.99
2022-09-15T19:16:46.637Z,67.44
2022-09-15T19:19:17.766Z,67.40
2022-09-15T19:21:48.437Z,67.26
2022-09-15T19:24:19.145Z,67.34
2022-09-15T19:26:47.343Z,67.64
2022-09-15T19:29:18.044Z,67.79
2022-09-15T19:31:46.073Z,68.07
2022-09-15T19:34:14.806Z,68.07
2022-09-15T19:36:43.656Z,68.08
2022-09-15T19:39:13.602Z,68.06
2022-09-15T19:41:43.168Z,68.01
2022-09-15T19:44:11.098Z,68.02
2022-09-15T19:46:39.549Z,67.97
2022-09-15T19:49:10.237Z,68.21
2022-09-15T19:51:38.774Z,68.07
2022-09-15T19:54:07.192Z,68.41
2022-09-15T19:56:35.561Z,68.45
2022-09-15T19:59:03.971Z,68.49
2022-09-15T20:01:32.797Z,68.42
2022-09-15T20:04:02.187Z,68.56
2022-09-15T20:06:32.763Z,68.56
2022-09-15T20:09:05.621Z,68.60
2022-09-15T20:11:34.086Z,68.68
2022-09-15T20:14:01.894Z,68.77
2022-09-15T20:16:32.246Z,68.85
2022-09-15T20:19:00.662Z,68.73
2022-09-15T20:21:49.372Z,68.83
2022-09-15T20:24:19.542Z,68.74
2022-09-15T20:26:47.538Z,68.48
2022-09-15T20:29:15.285Z,68.61
2022-09-15T20:31:46.580Z,68.62
2022-09-15T20:34:15.204Z,68.60
2022-09-15T20:36:43.551Z,68.42
2022-09-15T20:39:13.408Z,68.34
2022-09-15T20:41:42.275Z,68.36
2022-09-15T20:44:11.631Z,68.46
2022-09-15T20:46:39.519Z,68.50
2022-09-15T20:49:07.937Z,68.72
2022-09-15T20:51:35.618Z,68.73
2022-09-15T20:54:03.705Z,68.66
2022-09-15T20:56:32.236Z,68.77
2022-09-15T20:59:00.296Z,68.81
2022-09-15T21:01:29.556Z,68.81
2022-09-15T21:03:57.384Z,69.13
2022-09-15T21:06:26.038Z,69.29
2022-09-15T21:08:56.098Z,69.35
2022-09-15T21:11:24.818Z,69.51
2022-09-15T21:13:52.845Z,69.57
2022-09-15T21:16:21.572Z,69.62
2022-09-15T21:18:49.743Z,69.83
2022-09-15T21:21:19.306Z,69.87
2022-09-15T21:23:48.409Z,69.66
2022-09-15T21:26:17.178Z,69.72
2022-09-15T21:28:44.933Z,69.68
2022-09-15T21:31:14.944Z,69.68
2022-09-15T21:33:42.951Z,69.53
2022-09-15T21:36:10.859Z,69.53
2022-09-15T21:38:40.725Z,69.56
2022-09-15T21:41:09.799Z,69.73
2022-09-15T21:43:39.216Z,69.55
2022-09-15T21:46:08.569Z,69.53
2022-09-15T21:48:36.288Z,69.73
2022-09-15T21:51:04.816Z,69.74
2022-09-15T21:53:33.914Z,69.85
2022-09-15T21:56:02.071Z,69.89
2022-09-15T21:58:40.328Z,69.87
2022-09-15T22:01:13.791Z,69.98
2022-09-15T22:03:42.388Z,69.90
2022-09-15T22:06:12.997Z,69.99
2022-09-15T22:08:40.985Z,69.94
2022-09-15T22:11:09.037Z,69.82
2022-09-15T22:13:37.684Z,69.79
2022-09-15T22:16:06.465Z,69.74
2022-09-15T22:18:37.482Z,69.61
2022-09-15T22:21:05.351Z,69.66
2022-09-15T22:23:34.135Z,69.50
2022-09-15T22:26:02.543Z,69.49
2022-09-15T22:28:31.374Z,69.52
2022-09-15T22:30:59.692Z,69.58
2022-09-15T22:33:27.727Z,69.39
2022-09-15T22:35:55.709Z,69.37
2022-09-15T22:38:23.838Z,69.24
2022-09-15T22:40:51.698Z,69.26
2022-09-15T22:43:19.565Z,69.21
2022-09-15T22:45:47.654Z,69.24
2022-09-15T22:48:15.400Z,69.00
2022-09-15T22:50:46.447Z,69.07
2022-09-15T22:53:15.424Z,68.85
2022-09-15T22:55:43.831Z,68.65
2022-09-15T22:58:11.524Z,68.55
2022-09-15T23:04:10.344Z,68.72
2022-09-15T23:06:38.103Z,68.76
2022-09-15T23:09:07.095Z,68.89
2022-09-15T23:11:35.673Z,68.78
2022-09-15T23:14:04.380Z,68.83
2022-09-15T23:16:34.307Z,68.88
2022-09-15T23:19:02.562Z,68.87
2022-09-15T23:21:30.534Z,68.94
2022-09-15T23:23:59.418Z,69.01
2022-09-15T23:26:29.244Z,69.23
2022-09-15T23:28:57.412Z,69.28
2022-09-15T23:31:25.262Z,69.42
2022-09-15T23:33:53.388Z,69.48
2022-09-15T23:36:23.245Z,69.67
2022-09-15T23:38:51.565Z,69.76
2022-09-15T23:41:20.221Z,69.99
2022-09-15T23:43:48.997Z,70.15
2022-09-15T23:46:17.561Z,70.24
2022-09-15T23:48:45.492Z,70.41
2022-09-15T23:51:13.212Z,70.47
2022-09-15T23:53:43.414Z,70.36
2022-09-15T23:56:11.276Z,70.36
2022-09-15T23:58:39.749Z,70.53
